Time;durP1;ratioP1;P1;durP2;ratioP2;P2;SDS_P1;SDS_P2;PMS_P1;PMS_P2;Temp;Humidity;BMP_temperature;BMP_pressure;BME280_temperature;BME280_humidity;BME280_pressure;Samples;Min_cycle;Max_cycle;Signal;HPM_P1;HPM_P2
2021/03/09 00:00:22;;;;;;;208.27;91.93;;;;;;;-2.18;64.83;100894.29;124947;1112;24619;-55
2021/03/09 00:03:11;;;;;;;226.53;99.97;;;;;;;-2.24;65.11;100893.86;124919;1112;24846;-55
2021/03/09 00:05:40;;;;;;;212.73;91.50;;;;;;;-2.24;65.15;100895.80;124639;1112;24386;-56
2021/03/09 00:08:12;;;;;;;210.53;91.80;;;;;;;-2.22;65.87;100897.00;124326;1112;26541;-59
2021/03/09 00:10:42;;;;;;;209.80;94.25;;;;;;;-2.20;65.48;100894.67;124888;1111;23019;-58
2021/03/09 00:13:11;;;;;;;221.15;94.75;;;;;;;-2.19;65.22;100898.20;125058;1112;23076;-55
2021/03/09 00:15:40;;;;;;;213.40;93.60;;;;;;;-2.21;65.69;100890.35;124896;1112;23082;-54
2021/03/09 00:18:12;;;;;;;207.07;87.70;;;;;;;-2.19;65.51;100892.73;124914;1112;23077;-55
2021/03/09 00:20:41;;;;;;;196.43;84.60;;;;;;;-2.18;65.50;100895.08;125069;1112;23087;-56
2021/03/09 00:23:10;;;;;;;182.77;79.77;;;;;;;-2.19;64.67;100900.94;125005;1112;23152;-55
2021/03/09 00:25:39;;;;;;;171.85;72.85;;;;;;;-2.24;64.85;100901.27;124854;1110;23024;-58
2021/03/09 00:28:08;;;;;;;168.03;72.40;;;;;;;-2.36;65.33;100896.88;125261;1111;25934;-54
2021/03/09 00:30:38;;;;;;;159.83;66.73;;;;;;;-2.39;65.78;100896.81;124988;1111;27591;-54
2021/03/09 00:33:07;;;;;;;159.10;69.13;;;;;;;-2.38;65.76;100895.67;125007;1112;27101;-57
2021/03/09 00:35:36;;;;;;;157.47;68.33;;;;;;;-2.38;65.77;100893.73;124955;1111;23033;-56
2021/03/09 00:38:06;;;;;;;150.63;68.13;;;;;;;-2.40;65.18;100900.73;124960;1112;23097;-57
2021/03/09 00:40:35;;;;;;;157.77;66.13;;;;;;;-2.44;66.09;100897.94;125136;1111;22992;-54
2021/03/09 00:43:04;;;;;;;158.37;68.07;;;;;;;-2.44;65.35;100891.70;125140;1110;23073;-54
2021/03/09 00:45:33;;;;;;;147.47;64.57;;;;;;;-2.44;65.44;100897.94;125119;1111;23045;-55
2021/03/09 00:48:03;;;;;;;156.00;67.20;;;;;;;-2.45;65.91;100896.38;125217;1112;23076;-54
2021/03/09 00:50:32;;;;;;;155.47;66.17;;;;;;;-2.48;65.43;100897.12;125045;1112;25940;-54
2021/03/09 00:53:02;;;;;;;154.27;65.92;;;;;;;-2.53;65.47;100897.47;125074;1110;25561;-54
2021/03/09 00:55:31;;;;;;;145.33;63.13;;;;;;;-2.59;65.73;100899.73;125115;1110;23221;-57
2021/03/09 00:58:01;;;;;;;143.07;63.37;;;;;;;-2.63;65.26;100898.91;124910;1111;23226;-53
2021/03/09 01:00:31;;;;;;;148.67;66.00;;;;;;;-2.66;65.72;100894.21;125077;1111;26386;-54
2021/03/09 01:03:01;;;;;;;151.27;67.00;;;;;;;-2.66;65.62;100890.69;125009;1112;27797;-54
2021/03/09 01:05:30;;;;;;;154.03;68.10;;;;;;;-2.71;65.73;100882.84;125042;1112;23155;-55
2021/03/09 01:08:01;;;;;;;148.37;64.27;;;;;;;-2.74;65.43;100883.57;125036;1112;23151;-57
2021/03/09 01:10:30;;;;;;;143.93;65.77;;;;;;;-2.75;65.28;100879.28;124991;1112;24047;-55
2021/03/09 01:12:59;;;;;;;142.00;65.37;;;;;;;-2.75;65.38;100882.78;124995;1111;23291;-53
2021/03/09 01:15:29;;;;;;;172.63;70.90;;;;;;;-2.80;64.80;100879.60;124991;1110;23019;-54
2021/03/09 01:17:57;;;;;;;151.73;67.97;;;;;;;-2.86;65.45;100870.17;124932;1111;24613;-57
2021/03/09 01:20:28;;;;;;;156.90;68.50;;;;;;;-2.91;65.25;100871.28;124908;1112;23020;-55
2021/03/09 01:22:57;;;;;;;160.70;66.90;;;;;;;-2.94;65.19;100874.77;125079;1111;24670;-54
2021/03/09 01:25:26;;;;;;;157.47;65.67;;;;;;;-2.93;65.31;100875.54;125039;1110;22972;-58
2021/03/09 01:27:55;;;;;;;153.67;65.33;;;;;;;-2.95;66.07;100875.92;124974;1111;23087;-54
2021/03/09 01:30:25;;;;;;;169.60;67.07;;;;;;;-2.97;65.55;100869.25;125079;1112;22930;-55
2021/03/09 01:32:56;;;;;;;152.10;65.87;;;;;;;-3.02;65.22;100867.63;125139;1112;27380;-55
2021/03/09 01:35:26;;;;;;;150.20;67.03;;;;;;;-3.10;65.56;100871.44;124905;1112;23028;-58
2021/03/09 01:37:56;;;;;;;161.00;69.77;;;;;;;-3.18;65.53;100861.59;125113;1111;23022;-55
2021/03/09 01:40:26;;;;;;;159.00;67.70;;;;;;;-3.23;65.30;100861.14;125290;1112;22950;-54
2021/03/09 01:42:55;;;;;;;158.37;67.05;;;;;;;-3.27;65.90;100859.14;125010;1112;22995;-54
2021/03/09 01:45:24;;;;;;;158.83;64.57;;;;;;;-3.29;65.71;100866.15;125238;1112;23044;-60
2021/03/09 01:47:59;;;;;;;143.60;62.77;;;;;;;-3.31;65.67;100857.55;124931;1110;23424;-56
2021/03/09 01:50:30;;;;;;;136.63;61.73;;;;;;;-3.30;65.97;100856.38;125049;1112;26387;-56
2021/03/09 01:53:02;;;;;;;155.17;67.27;;;;;;;-3.29;65.56;100849.77;124844;1112;23022;-54
2021/03/09 01:55:31;;;;;;;147.80;63.77;;;;;;;-3.29;65.85;100849.77;124999;1111;23071;-56
2021/03/09 01:58:01;;;;;;;153.70;64.23;;;;;;;-3.28;65.71;100851.33;125109;1112;23032;-55
2021/03/09 02:00:31;;;;;;;152.82;61.73;;;;;;;-3.29;65.85;100849.77;125078;1111;26449;-56
2021/03/09 02:03:02;;;;;;;142.17;58.37;;;;;;;-3.31;65.57;100847.38;125197;1112;23236;-55
2021/03/09 02:05:30;;;;;;;145.92;59.70;;;;;;;-3.33;65.26;100846.97;125216;1112;23093;-55
2021/03/09 02:08:00;;;;;;;145.77;60.03;;;;;;;-3.36;65.82;100833.28;125112;1110;23093;-54
2021/03/09 02:10:30;;;;;;;149.53;62.57;;;;;;;-3.38;66.11;100833.66;125060;1112;22988;-57
2021/03/09 02:13:22;;;;;;;140.07;62.03;;;;;;;-3.39;66.21;100825.82;125040;1111;24611;-57
2021/03/09 02:15:59;;;;;;;142.45;61.90;;;;;;;-3.40;65.74;100826.99;125167;1112;23186;-57
2021/03/09 02:18:41;;;;;;;135.90;57.67;;;;;;;-3.43;65.81;100828.52;124938;1112;23049;-57
2021/03/09 02:21:22;;;;;;;142.27;58.63;;;;;;;-3.48;65.75;100819.87;125052;1112;27142;-57
2021/03/09 02:24:19;;;;;;;145.60;59.13;;;;;;;-3.57;65.54;100827.55;125048;1112;23033;-55
2021/03/09 02:27:15;;;;;;;151.40;61.90;;;;;;;-3.70;65.38;100823.45;124891;1111;27521;-54
2021/03/09 02:30:25;;;;;;;139.20;56.80;;;;;;;-3.77;65.95;100818.71;125125;1112;26055;-58
2021/03/09 02:33:03;;;;;;;143.65;54.30;;;;;;;-3.77;66.30;100820.65;124865;1114;23037;-54
2021/03/09 02:35:37;;;;;;;134.17;53.50;;;;;;;-3.77;65.97;100818.71;124828;1115;25080;-54
2021/03/09 02:38:09;;;;;;;133.60;54.43;;;;;;;-3.77;65.65;100820.65;124721;1114;23093;-55
2021/03/09 02:40:39;;;;;;;134.63;54.03;;;;;;;-3.77;65.65;100820.65;124779;1115;23040;-57
2021/03/09 02:43:13;;;;;;;133.95;53.95;;;;;;;-3.78;65.94;100813.60;124839;1114;27935;-54
2021/03/09 02:45:44;;;;;;;136.23;52.30;;;;;;;-3.79;65.89;100817.50;124799;1115;23032;-54
2021/03/09 02:48:15;;;;;;;136.80;48.50;;;;;;;-3.80;66.03;100821.37;124799;1115;25921;-56
2021/03/09 02:50:49;;;;;;;121.03;51.43;;;;;;;-3.79;66.39;100814.77;124720;1115;24549;-54
2021/03/09 02:53:19;;;;;;;140.30;53.47;;;;;;;-3.79;66.11;100820.23;124833;1114;23049;-56
2021/03/09 02:55:51;;;;;;;125.03;48.73;;;;;;;-3.80;66.32;100815.91;124842;1115;23197;-54
2021/03/09 02:58:21;;;;;;;125.57;49.87;;;;;;;-3.81;66.51;100815.15;124715;1115;23460;-55
2021/03/09 03:00:51;;;;;;;;;;;;;;;-3.85;66.15;100813.52;124818;1115;23252;-61
2021/03/09 03:03:21;;;;;;;133.97;48.97;;;;;;;-3.95;66.27;100808.70;124765;1116;21690;-54
2021/03/09 03:05:51;;;;;;;128.05;53.75;;;;;;;-4.04;66.64;100816.34;124909;1114;23087;-60
2021/03/09 03:08:19;;;;;;;;;;;;;;;-4.16;66.76;100823.56;124944;1112;24642;-56
2021/03/09 03:10:51;;;;;;;144.10;55.73;;;;;;;-4.24;66.78;100823.81;124946;1112;21505;-57
2021/03/09 03:13:22;;;;;;;147.23;58.67;;;;;;;-4.32;67.20;100822.13;124882;1111;24670;-57
2021/03/09 03:15:55;;;;;;;130.73;54.33;;;;;;;-4.36;67.13;100826.73;125024;1112;23609;-59
2021/03/09 03:18:27;;;;;;;131.60;53.57;;;;;;;-4.31;67.56;100820.99;124979;1112;22996;-54
2021/03/09 03:20:56;;;;;;;134.97;54.03;;;;;;;-4.27;67.25;100827.30;125069;1112;23003;-55
2021/03/09 03:23:26;;;;;;;138.60;55.30;;;;;;;-4.29;66.75;100821.42;124941;1112;23257;-57
2021/03/09 03:25:59;;;;;;;127.95;52.40;;;;;;;-4.29;66.97;100815.97;125091;1112;22981;-54
2021/03/09 03:28:29;;;;;;;138.65;53.05;;;;;;;-4.27;67.16;100819.91;125012;1112;22999;-54
2021/03/09 03:30:57;;;;;;;124.47;51.50;;;;;;;-4.24;67.54;100807.46;125056;1112;27223;-54
2021/03/09 03:33:27;;;;;;;134.70;50.93;;;;;;;-4.22;66.80;100814.13;124903;1110;25967;-56
2021/03/09 03:36:03;;;;;;;135.20;49.23;;;;;;;-4.20;67.02;100813.78;125036;1111;23020;-54
2021/03/09 03:38:35;;;;;;;124.77;48.27;;;;;;;-4.14;67.34;100810.36;124988;1110;24451;-55
2021/03/09 03:41:06;;;;;;;135.30;50.80;;;;;;;-4.13;66.67;100809.22;124982;1112;26466;-54
2021/03/09 03:43:36;;;;;;;137.20;48.67;;;;;;;-4.17;66.76;100815.77;124950;1111;26405;-54
2021/03/09 03:46:07;;;;;;;128.35;48.92;;;;;;;-4.20;66.53;100811.82;125117;1110;23076;-57
2021/03/09 03:48:38;;;;;;;138.60;49.90;;;;;;;-4.19;66.87;100821.59;124960;1112;24420;-55
2021/03/09 03:51:12;;;;;;;123.80;47.97;;;;;;;-4.18;66.84;100814.97;125056;1112;23083;-55
2021/03/09 03:53:51;;;;;;;134.73;50.00;;;;;;;-4.12;67.46;100821.68;124921;1111;22965;-57
2021/03/09 03:56:33;;;;;;;124.67;46.53;;;;;;;-4.06;66.70;100813.20;124912;1112;23089;-54
2021/03/09 03:59:07;;;;;;;128.03;48.10;;;;;;;-4.01;66.59;100810.94;125042;1110;27820;-54
2021/03/09 04:01:38;;;;;;;127.00;46.03;;;;;;;-3.98;66.59;100809.42;124950;1112;23051;-54
2021/03/09 04:04:11;;;;;;;124.50;48.17;;;;;;;-4.00;66.39;100819.91;125026;1112;23036;-56
2021/03/09 04:06:45;;;;;;;126.80;49.70;;;;;;;-3.97;66.34;100811.02;124912;1111;25616;-55
2021/03/09 04:09:17;;;;;;;124.20;48.33;;;;;;;-3.98;66.26;100804.77;125063;1112;23013;-54
2021/03/09 04:11:48;;;;;;;125.40;49.83;;;;;;;-4.00;66.22;100807.08;124865;1112;23090;-54
2021/03/09 04:14:18;;;;;;;119.85;48.40;;;;;;;-4.05;66.24;100809.30;125043;1112;26072;-53
2021/03/09 04:16:50;;;;;;;132.27;48.55;;;;;;;-4.10;66.21;100810.43;125023;1111;23027;-54
2021/03/09 04:19:21;;;;;;;120.83;49.33;;;;;;;-4.13;66.31;100809.22;125023;1112;22978;-57
2021/03/09 04:21:51;;;;;;;122.80;47.23;;;;;;;-4.15;66.39;100816.98;124968;1112;27909;-55
2021/03/09 04:24:21;;;;;;;118.93;45.67;;;;;;;-4.17;66.41;100818.48;124980;1112;23144;-54
2021/03/09 04:26:51;;;;;;;122.00;47.03;;;;;;;-4.18;66.65;100814.20;124964;1112;22971;-61
2021/03/09 04:29:22;;;;;;;131.15;48.23;;;;;;;-4.21;66.20;100818.44;125004;1112;23026;-55
2021/03/09 04:31:51;;;;;;;121.53;51.27;;;;;;;-4.23;66.50;100803.59;124999;1112;23028;-56
2021/03/09 04:34:20;;;;;;;131.10;49.10;;;;;;;-4.29;66.50;100805.86;125137;1110;23032;-54
2021/03/09 04:36:50;;;;;;;134.03;51.80;;;;;;;-4.32;66.65;100805.78;125069;1112;23097;-54
2021/03/09 04:39:20;;;;;;;128.68;50.83;;;;;;;-4.35;66.59;100804.59;125081;1112;23030;-56
2021/03/09 04:41:49;;;;;;;149.23;53.73;;;;;;;-4.34;66.58;100802.63;124971;1110;25960;-54
2021/03/09 04:44:18;;;;;;;139.85;50.98;;;;;;;-4.35;66.51;100801.87;124978;1112;23029;-55
2021/03/09 04:46:48;;;;;;;149.87;57.07;;;;;;;-4.35;67.20;100798.34;125007;1112;23064;-56
2021/03/09 04:49:19;;;;;;;126.05;52.38;;;;;;;-4.38;66.55;100797.13;125121;1111;23190;-54
2021/03/09 04:51:48;;;;;;;146.97;54.47;;;;;;;-4.39;67.02;100795.58;125034;1112;23235;-57
2021/03/09 04:54:18;;;;;;;145.50;56.77;;;;;;;-4.36;66.88;100799.48;124982;1112;22993;-54
2021/03/09 04:56:47;;;;;;;147.47;58.07;;;;;;;-4.33;66.98;100799.56;124991;1112;25992;-56
2021/03/09 04:59:16;;;;;;;156.87;58.93;;;;;;;-4.32;66.90;100806.58;124982;1111;23673;-58
2021/03/09 05:01:47;;;;;;;158.18;59.45;;;;;;;-4.32;66.88;100806.58;124951;1110;23013;-54
2021/03/09 05:04:16;;;;;;;149.03;59.47;;;;;;;-4.30;67.41;100800.75;125064;1111;23311;-58
2021/03/09 05:06:45;;;;;;;169.20;63.65;;;;;;;-4.28;67.42;100810.14;124595;1112;24639;-56
2021/03/09 05:09:14;;;;;;;164.30;63.17;;;;;;;-4.27;67.25;100827.30;124525;1111;22997;-54
2021/03/09 05:11:44;;;;;;;167.67;62.07;;;;;;;-4.27;67.37;100821.84;124873;1110;25075;-55
2021/03/09 05:14:14;;;;;;;155.37;58.77;;;;;;;-4.27;67.43;100819.91;124580;1110;26411;-62
2021/03/09 05:16:43;;;;;;;154.73;57.33;;;;;;;-4.25;66.97;100831.23;124951;1111;24285;-54
2021/03/09 05:19:12;;;;;;;142.50;55.60;;;;;;;-4.24;67.26;100824.61;124841;1110;22984;-55
2021/03/09 05:21:41;;;;;;;136.47;50.27;;;;;;;-4.23;67.32;100825.41;124976;1112;23070;-54
2021/03/09 05:24:12;;;;;;;139.67;50.97;;;;;;;-4.23;67.09;100830.86;124990;1112;25147;-54
2021/03/09 05:26:42;;;;;;;131.65;48.15;;;;;;;-4.24;67.28;100830.06;124923;1110;24673;-54
2021/03/09 05:29:12;;;;;;;118.93;47.50;;;;;;;-4.26;67.48;100826.13;124922;1110;24651;-54
2021/03/09 05:31:40;;;;;;;124.10;46.87;;;;;;;-4.29;67.21;100822.21;124881;1111;27368;-55
2021/03/09 05:34:09;;;;;;;125.20;46.40;;;;;;;-4.27;67.14;100825.36;124825;1111;23073;-56
2021/03/09 05:36:38;;;;;;;137.07;48.23;;;;;;;-4.27;67.61;100822.63;124593;1110;26646;-59
2021/03/09 05:39:08;;;;;;;130.00;47.67;;;;;;;-4.28;67.32;100823.77;124612;1110;23019;-58
2021/03/09 05:41:37;;;;;;;118.85;48.35;;;;;;;-4.30;67.52;100823.34;124602;1112;22988;-60
2021/03/09 05:44:08;;;;;;;188.82;69.40;;;;;;;-4.29;67.49;100821.42;124715;1112;26446;-54
2021/03/09 05:46:36;;;;;;;;;;;;;;;-4.31;67.39;100820.99;124780;1112;24735;-54
2021/03/09 05:49:06;;;;;;;146.75;57.40;;;;;;;-4.35;67.99;100823.67;124573;1112;21571;-54
2021/03/09 05:51:35;;;;;;;173.60;69.22;;;;;;;-4.32;67.62;100830.31;124711;1110;23089;-56
2021/03/09 05:54:04;;;;;;;178.67;67.60;;;;;;;-4.32;68.11;100827.59;124663;1111;26603;-55
2021/03/09 05:56:34;;;;;;;180.13;70.33;;;;;;;-4.31;67.99;100820.99;124756;1112;23071;-54
2021/03/09 05:59:04;;;;;;;161.80;63.23;;;;;;;-4.29;67.81;100826.87;124557;1112;23097;-56
2021/03/09 06:01:33;;;;;;;163.30;67.27;;;;;;;-4.28;68.19;100833.87;124518;1112;26042;-53
2021/03/09 06:04:02;;;;;;;168.10;68.75;;;;;;;-4.26;68.40;100829.64;124579;1112;24386;-54
2021/03/09 06:06:33;;;;;;;173.23;73.27;;;;;;;-4.24;68.37;100823.81;124427;1110;23194;-56
2021/03/09 06:09:01;;;;;;;;;;;;;;;-4.25;68.24;100822.27;124753;1112;26446;-53
2021/03/09 06:11:30;;;;;;;189.63;73.27;;;;;;;-4.23;68.62;100828.92;124544;1111;21614;-55
2021/03/09 06:13:59;;;;;;;225.50;84.50;;;;;;;-4.21;68.24;100818.44;124522;1112;23083;-57
2021/03/09 06:16:35;;;;;;;233.60;85.40;;;;;;;-4.20;68.60;100825.45;124564;1112;23116;-53
2021/03/09 06:19:04;;;;;;;218.07;77.77;;;;;;;-4.16;68.87;100833.71;124443;1112;23205;-53
2021/03/09 06:21:33;;;;;;;198.60;72.83;;;;;;;-4.15;68.86;100838.79;124471;1112;23148;-53
2021/03/09 06:24:19;;;;;;;171.77;66.17;;;;;;;-4.15;69.21;100846.97;124527;1112;23060;-54
2021/03/09 06:26:49;;;;;;;169.17;67.47;;;;;;;-4.18;69.41;100842.23;124523;1110;23077;-54
2021/03/09 06:29:19;;;;;;;161.28;66.42;;;;;;;-4.17;69.23;100843.03;124506;1111;23043;-54
2021/03/09 06:32:03;;;;;;;167.87;68.52;;;;;;;-4.15;69.61;100843.45;124631;1112;23023;-54
2021/03/09 06:34:34;;;;;;;163.60;64.95;;;;;;;-4.16;70.13;100841.89;124544;1112;23046;-55
2021/03/09 06:37:08;;;;;;;209.10;78.57;;;;;;;-4.13;70.19;100841.94;124572;1112;22984;-55
2021/03/09 06:39:46;;;;;;;219.07;79.67;;;;;;;-4.11;70.25;100838.83;124603;1112;27521;-54
2021/03/09 06:42:17;;;;;;;210.27;79.73;;;;;;;-4.06;70.69;100840.47;124629;1112;26042;-54
2021/03/09 06:44:52;;;;;;;242.47;84.73;;;;;;;-4.03;70.98;100842.48;124617;1112;23198;-57
2021/03/09 06:47:32;;;;;;;264.37;102.47;;;;;;;-4.01;70.92;100849.12;124638;1112;23167;-54
2021/03/09 06:50:03;;;;;;;250.25;93.95;;;;;;;-3.97;71.30;100841.77;124510;1112;23052;-57
2021/03/09 06:52:31;;;;;;;;;;;;;;;-3.90;71.84;100852.01;124839;1112;23354;-55
2021/03/09 06:55:00;;;;;;;195.60;75.20;;;;;;;-3.88;71.82;100846.97;124498;1112;25019;-57
2021/03/09 06:57:30;;;;;;;169.53;69.60;;;;;;;-3.83;71.87;100849.40;124849;1112;23522;-58
2021/03/09 07:00:00;;;;;;;180.60;73.00;;;;;;;-3.76;71.57;100849.48;128213;1112;22838;-58
2021/03/09 07:02:30;;;;;;;178.57;71.63;;;;;;;-3.71;72.11;100844.52;128151;1112;23651;-58
2021/03/09 07:05:06;;;;;;;168.93;71.05;;;;;;;-3.62;72.34;100849.71;128155;1112;23012;-55
2021/03/09 07:07:36;;;;;;;166.37;70.20;;;;;;;-3.52;72.97;100849.06;128170;1112;22844;-56
2021/03/09 07:10:08;;;;;;;160.30;68.25;;;;;;;-3.44;72.49;100845.27;128152;1111;22894;-58
2021/03/09 07:12:39;;;;;;;152.23;63.10;;;;;;;-3.36;72.79;100846.94;128151;1111;22878;-57
2021/03/09 07:15:11;;;;;;;156.30;65.47;;;;;;;-3.24;72.97;100851.36;128178;1112;22883;-58
2021/03/09 07:17:41;;;;;;;139.17;60.30;;;;;;;-3.14;73.06;100847.97;128119;1112;22847;-56
2021/03/09 07:20:12;;;;;;;132.27;55.80;;;;;;;-3.04;73.34;100853.56;128165;1112;23426;-57
2021/03/09 07:22:42;;;;;;;137.53;56.60;;;;;;;-2.94;72.71;100852.12;128216;1112;22860;-58
2021/03/09 07:25:14;;;;;;;126.67;53.37;;;;;;;-2.85;72.91;100853.39;128177;1111;22807;-58
2021/03/09 07:27:51;;;;;;;126.97;49.77;;;;;;;-2.75;73.32;100849.98;128106;1111;22837;-57
2021/03/09 07:30:22;;;;;;;109.67;45.53;;;;;;;-2.65;72.88;100848.55;128174;1112;23751;-58
2021/03/09 07:32:53;;;;;;;112.77;46.13;;;;;;;-2.56;72.88;100852.53;128151;1111;22816;-57
2021/03/09 07:35:22;;;;;;;105.10;43.27;;;;;;;-2.47;73.29;100852.23;128200;1110;22919;-58
2021/03/09 07:37:54;;;;;;;105.85;43.48;;;;;;;-2.37;72.83;100857.00;128192;1111;22909;-57
2021/03/09 07:40:25;;;;;;;99.97;41.83;;;;;;;-2.27;73.11;100855.52;128195;1111;22848;-57
2021/03/09 07:42:55;;;;;;;96.00;38.87;;;;;;;-2.18;72.10;100856.00;128150;1111;22839;-57
2021/03/09 07:45:27;;;;;;;97.22;39.00;;;;;;;-2.09;72.66;100859.20;128162;1111;22858;-54
2021/03/09 07:47:58;;;;;;;101.53;39.03;;;;;;;-2.01;71.86;100850.69;128160;1111;22984;-59
2021/03/09 07:50:33;;;;;;;96.53;41.50;;;;;;;-1.92;72.01;100853.06;128200;1111;22770;-57
2021/03/09 07:53:10;;;;;;;100.37;41.10;;;;;;;-1.83;72.18;100848.85;128174;1111;22885;-58
2021/03/09 07:55:40;;;;;;;91.87;38.70;;;;;;;-1.72;72.43;100848.92;128169;1112;23506;-58
2021/03/09 07:58:22;;;;;;;92.33;38.00;;;;;;;-1.64;72.27;100847.80;128039;1111;34666;-57
2021/03/09 08:01:09;;;;;;;96.77;37.30;;;;;;;-1.55;72.32;100842.75;128130;1111;22864;-57
2021/03/09 08:03:40;;;;;;;93.17;37.43;;;;;;;-1.45;71.79;100847.53;128167;1111;22859;-58
2021/03/09 08:06:11;;;;;;;96.15;36.03;;;;;;;-1.37;71.55;100838.17;128134;1112;23028;-56
2021/03/09 08:08:44;;;;;;;94.43;36.30;;;;;;;-1.28;72.18;100835.85;128139;1111;22926;-57
2021/03/09 08:11:38;;;;;;;81.73;33.07;;;;;;;-1.20;71.09;100831.97;128171;1112;22858;-57
2021/03/09 08:14:24;;;;;;;91.13;32.67;;;;;;;-1.10;71.77;100839.47;128160;1111;23139;-54
2021/03/09 08:16:53;;;;;;;84.80;33.90;;;;;;;-0.99;71.10;100837.53;128128;1111;22898;-54
2021/03/09 08:19:45;;;;;;;82.00;34.77;;;;;;;-0.91;70.91;100830.90;128177;1111;22973;-59
2021/03/09 08:22:14;;;;;;;86.07;34.27;;;;;;;-0.77;71.76;100829.38;128186;1112;23044;-64
2021/03/09 08:24:56;;;;;;;70.40;28.37;;;;;;;-0.66;71.04;100827.45;128170;1111;22839;-58
2021/03/09 08:28:37;;;;;;;67.03;26.57;;;;;;;-0.48;70.19;100834.53;124014;1110;22990;-57
2021/03/09 08:31:26;;;;;;;68.17;26.70;;;;;;;-0.38;69.86;100825.53;128168;1111;22867;-58
2021/03/09 08:34:24;;;;;;;58.17;24.73;;;;;;;-0.28;70.64;100829.44;127918;1111;42520;-57
2021/03/09 08:36:53;;;;;;;69.27;28.40;;;;;;;-0.17;70.01;100822.01;127859;1113;22994;-58
2021/03/09 08:39:22;;;;;;;68.90;28.03;;;;;;;-0.08;69.84;100827.86;127885;1111;22986;-60
2021/03/09 08:42:02;;;;;;;69.40;27.75;;;;;;;0.00;70.46;100830.22;127896;1113;22857;-59
2021/03/09 08:44:32;;;;;;;58.50;23.90;;;;;;;0.11;69.49;100832.16;127901;1112;22847;-57
2021/03/09 08:47:03;;;;;;;68.57;24.23;;;;;;;0.19;69.31;100837.26;127890;1114;23002;-59
2021/03/09 08:49:52;;;;;;;65.57;24.60;;;;;;;0.24;68.81;100823.14;127912;1113;22860;-59
2021/03/09 08:52:42;;;;;;;59.30;22.83;;;;;;;0.31;69.45;100825.86;127898;1112;22873;-57
2021/03/09 08:55:12;;;;;;;60.77;23.03;;;;;;;0.38;69.22;100825.85;127895;1112;22832;-59
2021/03/09 08:57:41;;;;;;;53.20;22.70;;;;;;;0.49;69.14;100831.33;127816;1113;25442;-58
2021/03/09 09:00:15;;;;;;;50.30;20.87;;;;;;;0.58;68.75;100813.23;127849;1114;22837;-56
2021/03/09 09:02:44;;;;;;;56.85;20.15;;;;;;;0.69;68.10;100827.73;127905;1113;22879;-59
2021/03/09 09:05:15;;;;;;;50.60;17.83;;;;;;;0.76;68.51;100824.17;127878;1113;24419;-56
2021/03/09 09:07:45;;;;;;;32.10;10.37;;;;;;;0.86;66.13;100823.34;127889;1113;23479;-56
2021/03/09 09:10:16;;;;;;;31.47;11.33;;;;;;;0.96;66.44;100821.72;127888;1112;22846;-57
2021/03/09 09:12:46;;;;;;;43.63;13.50;;;;;;;1.06;66.46;100818.12;127855;1113;22995;-58
2021/03/09 09:15:22;;;;;;;32.03;10.50;;;;;;;1.17;66.02;100818.87;127897;1113;23760;-58
2021/03/09 09:17:55;;;;;;;33.40;9.63;;;;;;;1.25;64.66;100821.18;127887;1113;22879;-58
2021/03/09 09:20:30;;;;;;;30.70;9.80;;;;;;;1.34;65.48;100809.73;127764;1113;23706;-57
2021/03/09 09:23:08;;;;;;;30.57;8.90;;;;;;;1.47;65.01;100810.80;127876;1115;22902;-58
2021/03/09 09:25:39;;;;;;;27.07;8.53;;;;;;;1.57;64.41;100805.23;127869;1113;22909;-57
2021/03/09 09:28:09;;;;;;;26.52;8.08;;;;;;;1.64;64.42;100809.91;127813;1113;22931;-58
2021/03/09 09:30:41;;;;;;;31.33;7.85;;;;;;;1.72;63.71;100808.66;127849;1113;22912;-58
2021/03/09 09:33:11;;;;;;;23.10;8.13;;;;;;;1.83;64.74;100812.12;127885;1112;22963;-57
2021/03/09 09:35:40;;;;;;;;;;;;;;;1.94;63.16;100809.28;127857;1113;22877;-58
2021/03/09 09:38:11;;;;;;;27.03;8.57;;;;;;;2.00;63.27;100800.18;127828;1113;21448;-58
2021/03/09 09:40:43;;;;;;;27.43;9.67;;;;;;;2.02;62.94;100795.05;127842;1113;22866;-58
2021/03/09 09:43:14;;;;;;;25.17;7.67;;;;;;;2.10;62.61;100798.50;127863;1113;22847;-58
2021/03/09 09:45:47;;;;;;;24.67;8.33;;;;;;;2.16;62.04;100794.91;127853;1112;22914;-58
2021/03/09 09:48:18;;;;;;;25.70;7.57;;;;;;;2.23;61.59;100792.09;127868;1114;22890;-57
2021/03/09 09:50:49;;;;;;;23.37;7.10;;;;;;;2.33;61.02;100791.19;127897;1113;23054;-57
2021/03/09 09:53:29;;;;;;;;;;;;;;;2.42;61.40;100796.98;127902;1113;22930;-58
2021/03/09 09:55:59;;;;;;;22.37;6.08;;;;;;;2.51;61.98;100795.70;127831;1114;21477;-58
2021/03/09 09:58:44;;;;;;;28.80;5.72;;;;;;;2.57;61.52;100789.34;127812;1113;25148;-59
2021/03/09 10:01:14;;;;;;;25.97;6.37;;;;;;;2.64;61.11;100792.02;127878;1113;22847;-59
2021/03/09 10:03:55;;;;;;;20.52;6.83;;;;;;;2.71;60.84;100799.43;127901;1113;22819;-59
2021/03/09 10:06:24;;;;;;;;;;;;;;;2.74;60.05;100802.13;127867;1113;23657;-57
2021/03/09 10:08:54;;;;;;;19.17;5.70;;;;;;;2.80;60.86;100796.94;127881;1113;21428;-58
2021/03/09 10:11:23;;;;;;;17.07;5.15;;;;;;;2.85;61.02;100796.49;127863;1114;22920;-56
2021/03/09 10:14:05;;;;;;;20.90;5.67;;;;;;;2.89;60.16;100799.98;127902;1113;23649;-57
2021/03/09 10:16:38;;;;;;;17.30;4.40;;;;;;;2.92;60.54;100793.63;127804;1113;24298;-58
2021/03/09 10:19:08;;;;;;;16.77;4.53;;;;;;;2.92;59.78;100790.87;127899;1113;22898;-59
2021/03/09 10:21:39;;;;;;;19.82;4.95;;;;;;;2.97;58.76;100793.18;127863;1113;24299;-59
2021/03/09 10:24:08;;;;;;;;;;;;;;;3.03;58.79;100792.31;127883;1113;23434;-59
2021/03/09 10:26:41;;;;;;;17.07;3.60;;;;;;;3.08;59.50;100791.83;127884;1114;21449;-59
2021/03/09 10:29:15;;;;;;;13.40;3.77;;;;;;;3.16;58.08;100796.08;127847;1112;23473;-59
2021/03/09 10:31:47;;;;;;;12.63;2.93;;;;;;;3.21;57.97;100781.02;127877;1113;22866;-58
2021/03/09 10:34:17;;;;;;;14.07;2.53;;;;;;;3.23;57.26;100786.89;127882;1112;22934;-58
2021/03/09 10:36:55;;;;;;;14.63;2.12;;;;;;;3.28;57.66;100789.20;127871;1113;22867;-59
2021/03/09 10:39:26;;;;;;;12.33;2.07;;;;;;;3.35;56.92;100780.83;127883;1113;22884;-58
2021/03/09 10:41:56;;;;;;;8.60;1.70;;;;;;;3.43;56.56;100787.02;127890;1113;22794;-58
2021/03/09 10:44:37;;;;;;;8.88;1.60;;;;;;;3.45;56.63;100776.34;127901;1113;22940;-57
2021/03/09 10:47:05;;;;;;;;;;;;;;;3.49;55.88;100777.85;127849;1113;22929;-57
2021/03/09 10:49:35;;;;;;;8.63;1.50;;;;;;;3.55;56.75;100780.91;127855;1112;22588;-57
2021/03/09 10:52:07;;;;;;;8.43;1.30;;;;;;;3.59;55.30;100776.90;127884;1113;23312;-58
2021/03/09 10:54:38;;;;;;;7.10;1.30;;;;;;;3.64;55.54;100773.64;127863;1113;22847;-59
2021/03/09 10:57:10;;;;;;;7.70;1.30;;;;;;;3.70;54.61;100780.28;127883;1114;22809;-59
2021/03/09 10:59:39;;;;;;;3.47;0.87;;;;;;;3.74;54.65;100774.69;127841;1113;25439;-60
2021/03/09 11:02:09;;;;;;;6.50;1.07;;;;;;;3.75;53.45;100771.50;127835;1113;22921;-59
2021/03/09 11:04:38;;;;;;;6.15;0.98;;;;;;;3.69;53.23;100772.39;127853;1115;22902;-59
2021/03/09 11:07:08;;;;;;;8.13;1.30;;;;;;;3.64;53.61;100779.17;127874;1112;23669;-60
2021/03/09 11:09:37;;;;;;;7.90;1.67;;;;;;;3.65;53.36;100769.70;127888;1113;22892;-61
2021/03/09 11:12:07;;;;;;;6.83;1.30;;;;;;;3.67;52.85;100770.06;127899;1113;22865;-59
2021/03/09 11:14:35;;;;;;;;;;;;;;;3.68;53.77;100766.11;127934;1113;22991;-58
2021/03/09 11:17:04;;;;;;;8.63;1.30;;;;;;;3.70;52.83;100766.47;127867;1114;22170;-60
2021/03/09 11:19:34;;;;;;;8.47;1.50;;;;;;;3.75;53.33;100762.43;127836;1113;22841;-60
2021/03/09 11:22:03;;;;;;;7.80;1.52;;;;;;;3.73;52.17;100764.83;127860;1114;23475;-59
2021/03/09 11:24:32;;;;;;;10.90;1.70;;;;;;;3.71;51.56;100765.26;127832;1113;23868;-61